sensor_id;sensor_type;location;lat;lon;timestamp;P1;durP1;ratioP1;P2;durP2;ratioP2
19869;SDS011;10097;50.862;4.696;2022-12-07T00:03:44;20.70;;;8.47;;
19869;SDS011;10097;50.862;4.696;2022-12-07T00:06:11;17.33;;;9.07;;
19869;SDS011;10097;50.862;4.696;2022-12-07T00:08:38;20.03;;;9.43;;
19869;SDS011;10097;50.862;4.696;2022-12-07T00:11:12;17.97;;;9.27;;
19869;SDS011;10097;50.862;4.696;2022-12-07T00:13:42;20.47;;;9.70;;
19869;SDS011;10097;50.862;4.696;2022-12-07T00:16:13;19.67;;;9.47;;
19869;SDS011;10097;50.862;4.696;2022-12-07T00:18:41;17.73;;;8.83;;
19869;SDS011;10097;50.862;4.696;2022-12-07T00:23:45;23.87;;;9.87;;
19869;SDS011;10097;50.862;4.696;2022-12-07T00:28:37;21.00;;;9.23;;
19869;SDS011;10097;50.862;4.696;2022-12-07T00:31:10;23.33;;;9.63;;
19869;SDS011;10097;50.862;4.696;2022-12-07T00:33:37;19.93;;;9.33;;
19869;SDS011;10097;50.862;4.696;2022-12-07T00:36:04;18.00;;;9.30;;
19869;SDS011;10097;50.862;4.696;2022-12-07T00:38:33;18.33;;;8.97;;
19869;SDS011;10097;50.862;4.696;2022-12-07T00:41:01;17.77;;;9.57;;
19869;SDS011;10097;50.862;4.696;2022-12-07T00:43:47;22.53;;;9.43;;
19869;SDS011;10097;50.862;4.696;2022-12-07T00:46:14;19.67;;;10.13;;
19869;SDS011;10097;50.862;4.696;2022-12-07T00:48:40;28.00;;;10.50;;
19869;SDS011;10097;50.862;4.696;2022-12-07T00:51:09;21.30;;;10.23;;
19869;SDS011;10097;50.862;4.696;2022-12-07T00:53:37;21.17;;;10.20;;
19869;SDS011;10097;50.862;4.696;2022-12-07T00:56:17;20.80;;;9.83;;
19869;SDS011;10097;50.862;4.696;2022-12-07T00:58:51;20.80;;;9.70;;
19869;SDS011;10097;50.862;4.696;2022-12-07T01:01:21;25.90;;;10.37;;
19869;SDS011;10097;50.862;4.696;2022-12-07T01:03:48;18.80;;;10.43;;
19869;SDS011;10097;50.862;4.696;2022-12-07T01:06:14;20.37;;;10.37;;
19869;SDS011;10097;50.862;4.696;2022-12-07T01:08:41;23.77;;;10.50;;
19869;SDS011;10097;50.862;4.696;2022-12-07T01:11:07;20.37;;;10.10;;
19869;SDS011;10097;50.862;4.696;2022-12-07T01:13:36;20.00;;;10.50;;
19869;SDS011;10097;50.862;4.696;2022-12-07T01:16:03;21.97;;;11.30;;
19869;SDS011;10097;50.862;4.696;2022-12-07T01:18:31;25.70;;;10.90;;
19869;SDS011;10097;50.862;4.696;2022-12-07T01:21:02;20.43;;;11.43;;
19869;SDS011;10097;50.862;4.696;2022-12-07T01:23:34;20.27;;;10.67;;
19869;SDS011;10097;50.862;4.696;2022-12-07T01:26:01;21.53;;;11.00;;
19869;SDS011;10097;50.862;4.696;2022-12-07T01:28:32;19.03;;;10.20;;
19869;SDS011;10097;50.862;4.696;2022-12-07T01:31:02;21.40;;;10.87;;
19869;SDS011;10097;50.862;4.696;2022-12-07T01:33:31;22.83;;;11.07;;
19869;SDS011;10097;50.862;4.696;2022-12-07T01:36:05;22.77;;;12.33;;
19869;SDS011;10097;50.862;4.696;2022-12-07T01:38:33;23.30;;;11.60;;
19869;SDS011;10097;50.862;4.696;2022-12-07T01:40:59;22.37;;;11.50;;
19869;SDS011;10097;50.862;4.696;2022-12-07T01:43:27;23.73;;;12.03;;
19869;SDS011;10097;50.862;4.696;2022-12-07T01:45:54;21.73;;;12.03;;
19869;SDS011;10097;50.862;4.696;2022-12-07T01:48:41;25.83;;;12.63;;
19869;SDS011;10097;50.862;4.696;2022-12-07T01:51:08;27.47;;;12.80;;
19869;SDS011;10097;50.862;4.696;2022-12-07T01:53:36;25.30;;;12.63;;
19869;SDS011;10097;50.862;4.696;2022-12-07T01:56:07;23.40;;;12.87;;
19869;SDS011;10097;50.862;4.696;2022-12-07T01:58:35;21.53;;;12.03;;
19869;SDS011;10097;50.862;4.696;2022-12-07T02:01:02;26.43;;;13.20;;
19869;SDS011;10097;50.862;4.696;2022-12-07T02:03:32;26.93;;;14.43;;
19869;SDS011;10097;50.862;4.696;2022-12-07T02:06:02;25.63;;;13.90;;
19869;SDS011;10097;50.862;4.696;2022-12-07T02:08:31;25.77;;;12.67;;
19869;SDS011;10097;50.862;4.696;2022-12-07T02:10:57;24.80;;;13.43;;
19869;SDS011;10097;50.862;4.696;2022-12-07T02:13:24;19.87;;;12.00;;
19869;SDS011;10097;50.862;4.696;2022-12-07T02:22:01;25.57;;;13.67;;
19869;SDS011;10097;50.862;4.696;2022-12-07T02:27:46;35.27;;;18.33;;
19869;SDS011;10097;50.862;4.696;2022-12-07T02:30:16;29.73;;;14.07;;
19869;SDS011;10097;50.862;4.696;2022-12-07T02:35:20;24.77;;;13.43;;
19869;SDS011;10097;50.862;4.696;2022-12-07T02:38:01;27.23;;;14.47;;
19869;SDS011;10097;50.862;4.696;2022-12-07T02:43:04;33.13;;;14.57;;
19869;SDS011;10097;50.862;4.696;2022-12-07T02:45:43;26.80;;;13.87;;
19869;SDS011;10097;50.862;4.696;2022-12-07T02:48:11;25.57;;;14.03;;
19869;SDS011;10097;50.862;4.696;2022-12-07T02:50:44;27.07;;;15.10;;
19869;SDS011;10097;50.862;4.696;2022-12-07T02:53:32;29.87;;;15.00;;
19869;SDS011;10097;50.862;4.696;2022-12-07T02:58:50;26.10;;;14.07;;
19869;SDS011;10097;50.862;4.696;2022-12-07T03:11:11;27.17;;;13.67;;
19869;SDS011;10097;50.862;4.696;2022-12-07T03:18:57;30.33;;;15.07;;
19869;SDS011;10097;50.862;4.696;2022-12-07T03:21:35;32.93;;;14.73;;
19869;SDS011;10097;50.862;4.696;2022-12-07T03:24:06;31.27;;;15.53;;
19869;SDS011;10097;50.862;4.696;2022-12-07T03:26:41;28.27;;;13.87;;
19869;SDS011;10097;50.862;4.696;2022-12-07T03:29:13;24.20;;;13.30;;
19869;SDS011;10097;50.862;4.696;2022-12-07T03:31:58;25.23;;;13.43;;
19869;SDS011;10097;50.862;4.696;2022-12-07T03:37:31;29.13;;;14.80;;
19869;SDS011;10097;50.862;4.696;2022-12-07T03:40:07;23.13;;;13.27;;
19869;SDS011;10097;50.862;4.696;2022-12-07T03:42:43;25.43;;;14.37;;
19869;SDS011;10097;50.862;4.696;2022-12-07T03:45:09;23.53;;;13.13;;
19869;SDS011;10097;50.862;4.696;2022-12-07T03:47:59;25.83;;;14.07;;
19869;SDS011;10097;50.862;4.696;2022-12-07T03:50:41;24.03;;;12.77;;
19869;SDS011;10097;50.862;4.696;2022-12-07T03:53:15;26.17;;;13.83;;
19869;SDS011;10097;50.862;4.696;2022-12-07T03:55:45;29.70;;;13.37;;
19869;SDS011;10097;50.862;4.696;2022-12-07T03:58:15;25.00;;;12.93;;
19869;SDS011;10097;50.862;4.696;2022-12-07T04:00:43;26.67;;;13.10;;
19869;SDS011;10097;50.862;4.696;2022-12-07T04:03:10;26.00;;;13.03;;
19869;SDS011;10097;50.862;4.696;2022-12-07T04:05:36;24.50;;;12.90;;
19869;SDS011;10097;50.862;4.696;2022-12-07T04:08:02;25.13;;;13.07;;
19869;SDS011;10097;50.862;4.696;2022-12-07T04:10:28;20.60;;;11.53;;
19869;SDS011;10097;50.862;4.696;2022-12-07T04:12:54;23.03;;;11.40;;
19869;SDS011;10097;50.862;4.696;2022-12-07T04:15:19;20.40;;;10.83;;
19869;SDS011;10097;50.862;4.696;2022-12-07T04:17:45;22.43;;;12.13;;
19869;SDS011;10097;50.862;4.696;2022-12-07T04:20:11;22.87;;;11.57;;
19869;SDS011;10097;50.862;4.696;2022-12-07T04:22:37;34.70;;;15.90;;
19869;SDS011;10097;50.862;4.696;2022-12-07T04:25:03;50.07;;;18.13;;
19869;SDS011;10097;50.862;4.696;2022-12-07T04:27:29;30.23;;;14.77;;
19869;SDS011;10097;50.862;4.696;2022-12-07T04:29:54;23.50;;;12.67;;
19869;SDS011;10097;50.862;4.696;2022-12-07T04:32:20;31.13;;;14.17;;
19869;SDS011;10097;50.862;4.696;2022-12-07T04:34:46;25.50;;;12.20;;
19869;SDS011;10097;50.862;4.696;2022-12-07T04:37:12;27.30;;;12.40;;
19869;SDS011;10097;50.862;4.696;2022-12-07T04:39:37;26.63;;;12.60;;
19869;SDS011;10097;50.862;4.696;2022-12-07T04:42:03;24.83;;;12.33;;
19869;SDS011;10097;50.862;4.696;2022-12-07T04:44:29;22.77;;;12.03;;
19869;SDS011;10097;50.862;4.696;2022-12-07T04:46:55;25.93;;;11.33;;
19869;SDS011;10097;50.862;4.696;2022-12-07T04:49:22;28.47;;;11.93;;
19869;SDS011;10097;50.862;4.696;2022-12-07T04:51:48;27.83;;;12.93;;
19869;SDS011;10097;50.862;4.696;2022-12-07T04:54:14;30.77;;;12.90;;
19869;SDS011;10097;50.862;4.696;2022-12-07T04:56:41;25.27;;;12.50;;
19869;SDS011;10097;50.862;4.696;2022-12-07T04:59:07;23.57;;;11.73;;
19869;SDS011;10097;50.862;4.696;2022-12-07T05:01:34;28.60;;;14.87;;
19869;SDS011;10097;50.862;4.696;2022-12-07T05:03:59;26.93;;;13.13;;
19869;SDS011;10097;50.862;4.696;2022-12-07T05:06:25;33.30;;;15.20;;
19869;SDS011;10097;50.862;4.696;2022-12-07T05:08:51;36.50;;;17.23;;
19869;SDS011;10097;50.862;4.696;2022-12-07T05:11:17;37.50;;;15.10;;
19869;SDS011;10097;50.862;4.696;2022-12-07T05:14:02;25.53;;;13.07;;
19869;SDS011;10097;50.862;4.696;2022-12-07T05:16:29;27.90;;;11.80;;
19869;SDS011;10097;50.862;4.696;2022-12-07T05:18:55;22.97;;;11.57;;
19869;SDS011;10097;50.862;4.696;2022-12-07T05:21:21;27.50;;;11.73;;
19869;SDS011;10097;50.862;4.696;2022-12-07T05:23:47;21.80;;;10.50;;
19869;SDS011;10097;50.862;4.696;2022-12-07T05:26:13;24.83;;;11.07;;
19869;SDS011;10097;50.862;4.696;2022-12-07T05:28:38;23.90;;;11.33;;
19869;SDS011;10097;50.862;4.696;2022-12-07T05:31:04;24.37;;;10.53;;
19869;SDS011;10097;50.862;4.696;2022-12-07T05:33:30;22.23;;;10.97;;
19869;SDS011;10097;50.862;4.696;2022-12-07T05:35:55;20.70;;;11.30;;
19869;SDS011;10097;50.862;4.696;2022-12-07T05:38:21;21.37;;;10.67;;
19869;SDS011;10097;50.862;4.696;2022-12-07T05:40:46;29.20;;;12.77;;
19869;SDS011;10097;50.862;4.696;2022-12-07T05:43:12;35.97;;;18.53;;
19869;SDS011;10097;50.862;4.696;2022-12-07T05:45:38;27.73;;;14.07;;
19869;SDS011;10097;50.862;4.696;2022-12-07T05:48:03;52.13;;;23.93;;
19869;SDS011;10097;50.862;4.696;2022-12-07T05:50:29;26.40;;;13.53;;
19869;SDS011;10097;50.862;4.696;2022-12-07T05:52:55;26.40;;;12.50;;
19869;SDS011;10097;50.862;4.696;2022-12-07T05:55:20;24.50;;;12.33;;
19869;SDS011;10097;50.862;4.696;2022-12-07T05:57:46;23.93;;;11.37;;
19869;SDS011;10097;50.862;4.696;2022-12-07T06:00:30;19.67;;;10.87;;
19869;SDS011;10097;50.862;4.696;2022-12-07T06:02:56;22.27;;;10.90;;
19869;SDS011;10097;50.862;4.696;2022-12-07T06:05:22;22.17;;;10.27;;
19869;SDS011;10097;50.862;4.696;2022-12-07T06:07:49;26.07;;;10.90;;
19869;SDS011;10097;50.862;4.696;2022-12-07T06:10:14;25.97;;;11.63;;
19869;SDS011;10097;50.862;4.696;2022-12-07T06:12:40;19.70;;;11.10;;
19869;SDS011;10097;50.862;4.696;2022-12-07T06:15:08;21.60;;;11.07;;
19869;SDS011;10097;50.862;4.696;2022-12-07T06:17:35;27.77;;;11.60;;
19869;SDS011;10097;50.862;4.696;2022-12-07T06:20:02;22.93;;;11.10;;
19869;SDS011;10097;50.862;4.696;2022-12-07T06:22:29;22.47;;;10.87;;
19869;SDS011;10097;50.862;4.696;2022-12-07T06:24:55;20.23;;;11.17;;
19869;SDS011;10097;50.862;4.696;2022-12-07T06:27:20;22.30;;;11.40;;
19869;SDS011;10097;50.862;4.696;2022-12-07T06:29:46;29.43;;;14.93;;
19869;SDS011;10097;50.862;4.696;2022-12-07T06:32:12;22.10;;;11.10;;
19869;SDS011;10097;50.862;4.696;2022-12-07T06:34:37;32.53;;;14.97;;
19869;SDS011;10097;50.862;4.696;2022-12-07T06:37:03;24.43;;;11.47;;
19869;SDS011;10097;50.862;4.696;2022-12-07T06:39:29;33.80;;;16.17;;
19869;SDS011;10097;50.862;4.696;2022-12-07T06:41:55;30.60;;;14.67;;
19869;SDS011;10097;50.862;4.696;2022-12-07T06:44:21;25.17;;;12.40;;
19869;SDS011;10097;50.862;4.696;2022-12-07T06:46:48;22.80;;;11.63;;
19869;SDS011;10097;50.862;4.696;2022-12-07T06:49:14;38.60;;;17.33;;
19869;SDS011;10097;50.862;4.696;2022-12-07T06:51:40;29.03;;;15.63;;
19869;SDS011;10097;50.862;4.696;2022-12-07T06:54:08;43.20;;;21.87;;
19869;SDS011;10097;50.862;4.696;2022-12-07T06:56:35;26.97;;;13.13;;
19869;SDS011;10097;50.862;4.696;2022-12-07T06:59:01;26.67;;;14.30;;
19869;SDS011;10097;50.862;4.696;2022-12-07T07:01:28;27.80;;;14.97;;
19869;SDS011;10097;50.862;4.696;2022-12-07T07:03:54;22.80;;;11.70;;
19869;SDS011;10097;50.862;4.696;2022-12-07T07:06:19;26.47;;;12.10;;
19869;SDS011;10097;50.862;4.696;2022-12-07T07:08:45;19.67;;;10.83;;
19869;SDS011;10097;50.862;4.696;2022-12-07T07:11:11;25.97;;;11.07;;
19869;SDS011;10097;50.862;4.696;2022-12-07T07:13:36;20.60;;;11.33;;
19869;SDS011;10097;50.862;4.696;2022-12-07T07:16:02;21.70;;;10.83;;
19869;SDS011;10097;50.862;4.696;2022-12-07T07:18:28;22.40;;;10.13;;
19869;SDS011;10097;50.862;4.696;2022-12-07T07:20:54;22.00;;;10.27;;
19869;SDS011;10097;50.862;4.696;2022-12-07T07:23:20;19.90;;;10.60;;
19869;SDS011;10097;50.862;4.696;2022-12-07T07:25:46;20.80;;;9.90;;
19869;SDS011;10097;50.862;4.696;2022-12-07T07:28:13;23.53;;;10.80;;
19869;SDS011;10097;50.862;4.696;2022-12-07T07:30:39;20.20;;;10.37;;
19869;SDS011;10097;50.862;4.696;2022-12-07T07:33:04;18.53;;;10.77;;
19869;SDS011;10097;50.862;4.696;2022-12-07T07:35:31;50.80;;;22.60;;
19869;SDS011;10097;50.862;4.696;2022-12-07T07:37:58;27.77;;;13.57;;
19869;SDS011;10097;50.862;4.696;2022-12-07T07:40:24;32.93;;;14.50;;
19869;SDS011;10097;50.862;4.696;2022-12-07T07:42:51;68.80;;;31.30;;
19869;SDS011;10097;50.862;4.696;2022-12-07T07:45:18;24.33;;;12.20;;
19869;SDS011;10097;50.862;4.696;2022-12-07T07:47:45;22.33;;;9.73;;
19869;SDS011;10097;50.862;4.696;2022-12-07T07:50:11;28.73;;;13.30;;
19869;SDS011;10097;50.862;4.696;2022-12-07T07:52:37;36.97;;;14.83;;
19869;SDS011;10097;50.862;4.696;2022-12-07T07:55:02;27.50;;;12.27;;
19869;SDS011;10097;50.862;4.696;2022-12-07T07:57:28;27.10;;;12.13;;
19869;SDS011;10097;50.862;4.696;2022-12-07T07:59:54;23.17;;;11.57;;
19869;SDS011;10097;50.862;4.696;2022-12-07T08:02:20;23.17;;;9.80;;
19869;SDS011;10097;50.862;4.696;2022-12-07T08:04:47;20.90;;;9.07;;
19869;SDS011;10097;50.862;4.696;2022-12-07T08:07:12;18.30;;;8.93;;
19869;SDS011;10097;50.862;4.696;2022-12-07T08:09:39;24.23;;;9.67;;
19869;SDS011;10097;50.862;4.696;2022-12-07T08:12:05;24.40;;;9.43;;
19869;SDS011;10097;50.862;4.696;2022-12-07T08:14:31;20.20;;;8.50;;
19869;SDS011;10097;50.862;4.696;2022-12-07T08:16:57;15.00;;;8.27;;
19869;SDS011;10097;50.862;4.696;2022-12-07T08:19:23;19.20;;;9.17;;
19869;SDS011;10097;50.862;4.696;2022-12-07T08:21:49;21.67;;;9.20;;
19869;SDS011;10097;50.862;4.696;2022-12-07T08:24:14;23.47;;;9.27;;
19869;SDS011;10097;50.862;4.696;2022-12-07T08:26:42;27.70;;;13.70;;
19869;SDS011;10097;50.862;4.696;2022-12-07T08:29:07;22.30;;;9.80;;
19869;SDS011;10097;50.862;4.696;2022-12-07T08:31:33;26.53;;;10.30;;
19869;SDS011;10097;50.862;4.696;2022-12-07T08:33:59;22.50;;;10.53;;
19869;SDS011;10097;50.862;4.696;2022-12-07T08:36:26;65.33;;;31.73;;
19869;SDS011;10097;50.862;4.696;2022-12-07T08:38:51;20.50;;;10.33;;
19869;SDS011;10097;50.862;4.696;2022-12-07T08:41:17;22.57;;;9.60;;
19869;SDS011;10097;50.862;4.696;2022-12-07T08:43:43;25.97;;;9.83;;
19869;SDS011;10097;50.862;4.696;2022-12-07T08:46:17;22.97;;;9.30;;
19869;SDS011;10097;50.862;4.696;2022-12-07T08:51:42;22.83;;;9.53;;
19869;SDS011;10097;50.862;4.696;2022-12-07T08:54:09;26.20;;;10.07;;
19869;SDS011;10097;50.862;4.696;2022-12-07T08:56:38;20.90;;;9.83;;
19869;SDS011;10097;50.862;4.696;2022-12-07T08:59:04;22.50;;;10.77;;
19869;SDS011;10097;50.862;4.696;2022-12-07T09:01:31;23.73;;;11.90;;
19869;SDS011;10097;50.862;4.696;2022-12-07T09:03:57;24.63;;;10.00;;
19869;SDS011;10097;50.862;4.696;2022-12-07T09:06:23;24.07;;;11.47;;
19869;SDS011;10097;50.862;4.696;2022-12-07T09:08:50;20.77;;;10.53;;
19869;SDS011;10097;50.862;4.696;2022-12-07T09:11:18;20.67;;;10.00;;
19869;SDS011;10097;50.862;4.696;2022-12-07T09:13:44;21.20;;;9.80;;
19869;SDS011;10097;50.862;4.696;2022-12-07T09:16:10;19.10;;;9.53;;
19869;SDS011;10097;50.862;4.696;2022-12-07T09:18:35;17.93;;;8.50;;
19869;SDS011;10097;50.862;4.696;2022-12-07T09:21:01;17.00;;;8.30;;
19869;SDS011;10097;50.862;4.696;2022-12-07T09:23:27;16.20;;;7.97;;
19869;SDS011;10097;50.862;4.696;2022-12-07T09:25:52;20.83;;;7.50;;
19869;SDS011;10097;50.862;4.696;2022-12-07T09:28:18;17.30;;;7.00;;
19869;SDS011;10097;50.862;4.696;2022-12-07T09:30:47;21.90;;;8.83;;
19869;SDS011;10097;50.862;4.696;2022-12-07T09:33:13;18.80;;;7.50;;
19869;SDS011;10097;50.862;4.696;2022-12-07T09:35:43;16.50;;;7.87;;
19869;SDS011;10097;50.862;4.696;2022-12-07T09:38:10;13.53;;;6.93;;
19869;SDS011;10097;50.862;4.696;2022-12-07T09:40:35;16.87;;;7.63;;
19869;SDS011;10097;50.862;4.696;2022-12-07T09:43:01;17.53;;;8.73;;
19869;SDS011;10097;50.862;4.696;2022-12-07T09:45:30;16.23;;;7.40;;
19869;SDS011;10097;50.862;4.696;2022-12-07T09:47:59;16.13;;;7.43;;
19869;SDS011;10097;50.862;4.696;2022-12-07T09:50:26;23.53;;;7.10;;
19869;SDS011;10097;50.862;4.696;2022-12-07T09:52:54;13.80;;;6.83;;
19869;SDS011;10097;50.862;4.696;2022-12-07T09:55:31;16.50;;;6.90;;
19869;SDS011;10097;50.862;4.696;2022-12-07T09:57:58;18.97;;;6.67;;
19869;SDS011;10097;50.862;4.696;2022-12-07T10:00:24;13.00;;;6.57;;
19869;SDS011;10097;50.862;4.696;2022-12-07T10:02:53;17.30;;;6.47;;
19869;SDS011;10097;50.862;4.696;2022-12-07T10:05:27;15.43;;;7.20;;
19869;SDS011;10097;50.862;4.696;2022-12-07T10:08:03;16.53;;;7.33;;
19869;SDS011;10097;50.862;4.696;2022-12-07T10:10:30;18.10;;;7.20;;
19869;SDS011;10097;50.862;4.696;2022-12-07T10:13:08;16.10;;;6.17;;
19869;SDS011;10097;50.862;4.696;2022-12-07T10:18:19;18.80;;;7.57;;
19869;SDS011;10097;50.862;4.696;2022-12-07T10:23:34;21.20;;;7.03;;
19869;SDS011;10097;50.862;4.696;2022-12-07T10:26:21;18.73;;;7.40;;
19869;SDS011;10097;50.862;4.696;2022-12-07T10:29:36;17.03;;;6.70;;
19869;SDS011;10097;50.862;4.696;2022-12-07T10:34:42;17.33;;;6.20;;
19869;SDS011;10097;50.862;4.696;2022-12-07T10:39:43;17.17;;;5.97;;
19869;SDS011;10097;50.862;4.696;2022-12-07T10:44:48;12.53;;;5.60;;
19869;SDS011;10097;50.862;4.696;2022-12-07T10:52:53;12.43;;;4.67;;
19869;SDS011;10097;50.862;4.696;2022-12-07T11:01:13;15.23;;;4.40;;
19869;SDS011;10097;50.862;4.696;2022-12-07T11:08:55;15.13;;;4.77;;
19869;SDS011;10097;50.862;4.696;2022-12-07T11:11:55;12.53;;;4.60;;
19869;SDS011;10097;50.862;4.696;2022-12-07T11:21:06;15.23;;;4.83;;
19869;SDS011;10097;50.862;4.696;2022-12-07T11:23:49;11.53;;;4.73;;
19869;SDS011;10097;50.862;4.696;2022-12-07T11:32:21;14.70;;;4.50;;
19869;SDS011;10097;50.862;4.696;2022-12-07T11:35:22;11.40;;;4.40;;
19869;SDS011;10097;50.862;4.696;2022-12-07T11:38:16;13.83;;;4.00;;
19869;SDS011;10097;50.862;4.696;2022-12-07T11:40:45;12.63;;;3.77;;
19869;SDS011;10097;50.862;4.696;2022-12-07T11:46:10;11.43;;;3.87;;
19869;SDS011;10097;50.862;4.696;2022-12-07T11:48:41;11.50;;;3.90;;
19869;SDS011;10097;50.862;4.696;2022-12-07T11:51:19;11.03;;;3.33;;
19869;SDS011;10097;50.862;4.696;2022-12-07T11:53:51;17.10;;;5.10;;
19869;SDS011;10097;50.862;4.696;2022-12-07T11:56:26;12.57;;;4.63;;
19869;SDS011;10097;50.862;4.696;2022-12-07T11:58:54;11.10;;;4.13;;
19869;SDS011;10097;50.862;4.696;2022-12-07T12:06:38;16.67;;;4.40;;
19869;SDS011;10097;50.862;4.696;2022-12-07T12:25:41;13.87;;;4.20;;
19869;SDS011;10097;50.862;4.696;2022-12-07T12:31:28;12.40;;;4.03;;
19869;SDS011;10097;50.862;4.696;2022-12-07T12:34:00;13.10;;;4.33;;
19869;SDS011;10097;50.862;4.696;2022-12-07T12:46:54;10.27;;;3.30;;
19869;SDS011;10097;50.862;4.696;2022-12-07T12:54:24;9.80;;;2.90;;
19869;SDS011;10097;50.862;4.696;2022-12-07T13:10:33;7.03;;;2.20;;
19869;SDS011;10097;50.862;4.696;2022-12-07T13:15:43;6.53;;;2.40;;
19869;SDS011;10097;50.862;4.696;2022-12-07T13:23:38;15.23;;;3.00;;
19869;SDS011;10097;50.862;4.696;2022-12-07T13:29:04;9.37;;;2.50;;
19869;SDS011;10097;50.862;4.696;2022-12-07T13:37:08;9.30;;;3.23;;
19869;SDS011;10097;50.862;4.696;2022-12-07T13:39:46;7.97;;;2.40;;
19869;SDS011;10097;50.862;4.696;2022-12-07T13:44:51;10.87;;;2.20;;
19869;SDS011;10097;50.862;4.696;2022-12-07T13:47:38;11.53;;;2.30;;
19869;SDS011;10097;50.862;4.696;2022-12-07T13:50:31;11.00;;;2.60;;
19869;SDS011;10097;50.862;4.696;2022-12-07T13:53:00;8.77;;;2.40;;
19869;SDS011;10097;50.862;4.696;2022-12-07T13:55:26;6.47;;;2.10;;
19869;SDS011;10097;50.862;4.696;2022-12-07T13:57:53;16.43;;;2.03;;
19869;SDS011;10097;50.862;4.696;2022-12-07T14:00:24;9.43;;;2.47;;
19869;SDS011;10097;50.862;4.696;2022-12-07T14:02:56;8.07;;;2.50;;
19869;SDS011;10097;50.862;4.696;2022-12-07T14:05:28;6.97;;;1.83;;
19869;SDS011;10097;50.862;4.696;2022-12-07T14:07:56;6.20;;;1.87;;
19869;SDS011;10097;50.862;4.696;2022-12-07T14:10:32;8.67;;;3.57;;
19869;SDS011;10097;50.862;4.696;2022-12-07T14:13:00;8.67;;;2.30;;
19869;SDS011;10097;50.862;4.696;2022-12-07T14:15:28;10.07;;;2.33;;
19869;SDS011;10097;50.862;4.696;2022-12-07T14:17:58;8.80;;;2.53;;
19869;SDS011;10097;50.862;4.696;2022-12-07T14:20:37;8.53;;;2.40;;
19869;SDS011;10097;50.862;4.696;2022-12-07T14:23:06;8.63;;;2.27;;
19869;SDS011;10097;50.862;4.696;2022-12-07T14:25:51;8.13;;;2.20;;
19869;SDS011;10097;50.862;4.696;2022-12-07T14:28:25;10.53;;;2.27;;
19869;SDS011;10097;50.862;4.696;2022-12-07T14:30:52;8.97;;;2.17;;
19869;SDS011;10097;50.862;4.696;2022-12-07T14:33:18;8.83;;;2.23;;
19869;SDS011;10097;50.862;4.696;2022-12-07T14:35:44;9.80;;;2.20;;
19869;SDS011;10097;50.862;4.696;2022-12-07T14:38:10;7.90;;;2.23;;
19869;SDS011;10097;50.862;4.696;2022-12-07T14:40:35;8.10;;;2.00;;
19869;SDS011;10097;50.862;4.696;2022-12-07T14:43:03;7.37;;;2.00;;
19869;SDS011;10097;50.862;4.696;2022-12-07T14:45:37;8.53;;;2.03;;
19869;SDS011;10097;50.862;4.696;2022-12-07T14:48:04;7.87;;;2.70;;
19869;SDS011;10097;50.862;4.696;2022-12-07T14:50:30;8.20;;;3.30;;
19869;SDS011;10097;50.862;4.696;2022-12-07T14:53:03;8.57;;;3.40;;
19869;SDS011;10097;50.862;4.696;2022-12-07T14:55:37;8.50;;;2.93;;
19869;SDS011;10097;50.862;4.696;2022-12-07T14:58:03;7.17;;;2.43;;
19869;SDS011;10097;50.862;4.696;2022-12-07T15:00:29;7.67;;;3.00;;
19869;SDS011;10097;50.862;4.696;2022-12-07T15:02:55;8.00;;;2.60;;
19869;SDS011;10097;50.862;4.696;2022-12-07T15:05:21;9.13;;;2.70;;
19869;SDS011;10097;50.862;4.696;2022-12-07T15:07:47;9.77;;;3.20;;
19869;SDS011;10097;50.862;4.696;2022-12-07T15:10:24;5.57;;;2.33;;
19869;SDS011;10097;50.862;4.696;2022-12-07T15:12:56;5.93;;;2.80;;
19869;SDS011;10097;50.862;4.696;2022-12-07T15:15:46;7.37;;;2.57;;
19869;SDS011;10097;50.862;4.696;2022-12-07T15:18:15;7.07;;;2.47;;
19869;SDS011;10097;50.862;4.696;2022-12-07T15:20:42;6.37;;;2.53;;
19869;SDS011;10097;50.862;4.696;2022-12-07T15:23:08;7.93;;;2.90;;
19869;SDS011;10097;50.862;4.696;2022-12-07T15:25:34;6.93;;;3.00;;
19869;SDS011;10097;50.862;4.696;2022-12-07T15:28:00;7.87;;;2.80;;
19869;SDS011;10097;50.862;4.696;2022-12-07T15:30:25;7.40;;;3.43;;
19869;SDS011;10097;50.862;4.696;2022-12-07T15:32:51;7.00;;;2.73;;
19869;SDS011;10097;50.862;4.696;2022-12-07T15:35:18;8.03;;;2.80;;
19869;SDS011;10097;50.862;4.696;2022-12-07T15:37:44;8.27;;;2.87;;
19869;SDS011;10097;50.862;4.696;2022-12-07T15:40:10;8.37;;;3.30;;
19869;SDS011;10097;50.862;4.696;2022-12-07T15:42:36;6.50;;;2.90;;
19869;SDS011;10097;50.862;4.696;2022-12-07T15:45:02;8.73;;;3.60;;
19869;SDS011;10097;50.862;4.696;2022-12-07T15:47:36;19.87;;;4.60;;
19869;SDS011;10097;50.862;4.696;2022-12-07T15:50:06;11.27;;;3.57;;
19869;SDS011;10097;50.862;4.696;2022-12-07T15:52:33;9.63;;;4.10;;
19869;SDS011;10097;50.862;4.696;2022-12-07T15:54:59;12.10;;;4.57;;
19869;SDS011;10097;50.862;4.696;2022-12-07T15:57:25;12.07;;;4.67;;
19869;SDS011;10097;50.862;4.696;2022-12-07T15:59:52;11.03;;;4.30;;
19869;SDS011;10097;50.862;4.696;2022-12-07T16:02:18;30.20;;;11.93;;
19869;SDS011;10097;50.862;4.696;2022-12-07T16:04:44;126.07;;;42.20;;
19869;SDS011;10097;50.862;4.696;2022-12-07T16:07:10;22.63;;;9.20;;
19869;SDS011;10097;50.862;4.696;2022-12-07T16:09:36;22.30;;;8.40;;
19869;SDS011;10097;50.862;4.696;2022-12-07T16:12:03;14.33;;;6.00;;
19869;SDS011;10097;50.862;4.696;2022-12-07T16:14:29;9.83;;;4.37;;
19869;SDS011;10097;50.862;4.696;2022-12-07T16:16:57;10.07;;;4.40;;
19869;SDS011;10097;50.862;4.696;2022-12-07T16:19:22;10.23;;;4.60;;
19869;SDS011;10097;50.862;4.696;2022-12-07T16:21:48;11.10;;;4.50;;
19869;SDS011;10097;50.862;4.696;2022-12-07T16:24:14;15.43;;;4.73;;
19869;SDS011;10097;50.862;4.696;2022-12-07T16:26:40;12.43;;;4.13;;
19869;SDS011;10097;50.862;4.696;2022-12-07T16:29:05;17.97;;;5.10;;
19869;SDS011;10097;50.862;4.696;2022-12-07T16:31:31;15.73;;;4.90;;
19869;SDS011;10097;50.862;4.696;2022-12-07T16:33:57;11.77;;;5.47;;
19869;SDS011;10097;50.862;4.696;2022-12-07T16:36:23;11.53;;;4.97;;
19869;SDS011;10097;50.862;4.696;2022-12-07T16:38:51;13.60;;;4.83;;
19869;SDS011;10097;50.862;4.696;2022-12-07T16:41:17;15.80;;;5.50;;
19869;SDS011;10097;50.862;4.696;2022-12-07T16:43:43;13.07;;;4.20;;
19869;SDS011;10097;50.862;4.696;2022-12-07T16:46:09;13.80;;;5.30;;
19869;SDS011;10097;50.862;4.696;2022-12-07T16:48:38;12.50;;;4.67;;
19869;SDS011;10097;50.862;4.696;2022-12-07T16:51:05;12.40;;;4.73;;
19869;SDS011;10097;50.862;4.696;2022-12-07T16:53:34;16.03;;;5.07;;
19869;SDS011;10097;50.862;4.696;2022-12-07T16:56:00;11.00;;;4.23;;
19869;SDS011;10097;50.862;4.696;2022-12-07T16:58:26;13.97;;;3.93;;
19869;SDS011;10097;50.862;4.696;2022-12-07T17:00:51;12.50;;;4.27;;
19869;SDS011;10097;50.862;4.696;2022-12-07T17:03:17;9.87;;;4.20;;
19869;SDS011;10097;50.862;4.696;2022-12-07T17:05:43;14.20;;;4.40;;
19869;SDS011;10097;50.862;4.696;2022-12-07T17:08:11;12.53;;;4.47;;
19869;SDS011;10097;50.862;4.696;2022-12-07T17:10:38;15.00;;;4.53;;
19869;SDS011;10097;50.862;4.696;2022-12-07T17:13:05;12.47;;;4.20;;
19869;SDS011;10097;50.862;4.696;2022-12-07T17:15:57;10.30;;;3.97;;
19869;SDS011;10097;50.862;4.696;2022-12-07T17:18:26;11.80;;;4.60;;
19869;SDS011;10097;50.862;4.696;2022-12-07T17:20:53;11.93;;;4.60;;
19869;SDS011;10097;50.862;4.696;2022-12-07T17:23:19;12.40;;;4.50;;
19869;SDS011;10097;50.862;4.696;2022-12-07T17:25:45;13.77;;;4.60;;